Latest Weather Observations for Lucas Heights (ANSTO)

IDN60801

Issued at 6:23 pm EST Saturday 9 May 2026 (issued every 10 minutes, with the page automatically refreshed every 10 minutes)

About weather observations | Map of weather stations | Latest weather observations for NSW | Other Formats
Station Details ID: 066023 Name: LUCAS HEIGHTS (ANSTO) Lat: -34.05 Lon: 150.98 Height: 140.0 m
Data from the previous 72 hours. | See also: Recent months for locations in New South Wales
Date/Time
EST
Temp
°C
App
Temp
°C
Dew
Point
°C
Rel
Hum
%
Delta-T
°C
Wind Press
QNH
hPa
Press
MSL
hPa
Rain since
9am
mm
Dir  Spd
km/h
Gust
km/h
Spd
kts
Gust
kts
09/06:00pm 15.3 13.0 9.0 66 3.2 SE 11 13 6 7 1025.1 - 0.0
09/05:45pm 15.6 13.7 9.0 65 3.4 SE 9 13 5 7 1025.0 - 0.0
09/05:30pm 15.8 13.9 8.9 63 3.6 SE 9 11 5 6 1024.7 - 0.0
09/05:15pm 16.2 14.3 8.9 62 3.8 SE 9 13 5 7 1024.6 - 0.0
09/05:00pm 16.6 14.6 8.7 59 4.1 ESE 9 17 5 9 1024.5 - 0.0
09/04:45pm 16.8 14.8 8.5 58 4.3 SE 9 19 5 10 1024.3 - 0.0
09/04:30pm 17.3 14.1 8.4 56 4.6 SE 15 20 8 11 1024.2 - 0.0
09/04:15pm 17.6 14.0 8.3 54 4.8 SE 17 22 9 12 1024.0 - 0.0
09/04:00pm 18.0 14.8 8.3 53 5.0 ESE 15 20 8 11 1023.9 - 0.0
09/03:45pm 18.4 15.5 8.3 51 5.2 ESE 13 20 7 11 1023.8 - 0.0
09/03:30pm 18.6 15.4 8.3 51 5.3 ESE 15 22 8 12 1023.6 - 0.0
09/03:15pm 18.9 16.0 8.2 50 5.5 SE 13 20 7 11 1023.6 - 0.0
09/03:00pm 19.2 16.3 8.3 49 5.7 SE 13 19 7 10 1023.5 - 0.0
09/02:45pm 19.4 16.9 8.2 48 5.8 SE 11 22 6 12 1023.5 - 0.0
09/02:30pm 19.5 17.0 8.2 48 5.9 SE 11 17 6 9 1023.5 - 0.0
09/02:15pm 19.4 17.2 8.0 47 5.9 SE 9 17 5 9 1023.4 - 0.0
09/02:00pm 19.5 16.5 7.9 47 6.0 ESE 13 17 7 9 1023.4 - 0.0
09/01:45pm 19.7 17.5 7.9 46 6.1 SE 9 17 5 9 1023.5 - 0.0
09/01:30pm 19.8 17.6 7.7 45 6.3 SE 9 17 5 9 1023.6 - 0.0
09/01:15pm 19.6 17.3 7.3 45 6.3 SE 9 17 5 9 1023.7 - 0.0
09/01:00pm 19.6 16.8 7.1 44 6.4 SSE 11 17 6 9 1023.8 - 0.0
09/12:45pm 19.7 16.9 6.8 43 6.5 SE 11 17 6 9 1024.0 - 0.0
09/12:30pm 20.4 17.9 6.4 40 7.1 SSW 9 19 5 10 1024.1 - 0.0
09/12:15pm 20.2 17.7 6.5 41 6.9 SSE 9 17 5 9 1024.3 - 0.0
09/12:00pm 19.9 18.2 6.1 40 6.9 S 4 11 2 6 1024.5 - 0.0
09/11:45am 19.6 17.4 6.3 42 6.7 SSE 7 17 4 9 1024.7 - 0.0
09/11:30am 19.6 17.5 6.7 43 6.5 S 7 13 4 7 1024.7 - 0.0
09/11:15am 19.6 17.6 7.2 44 6.3 S 7 17 4 9 1024.8 - 0.0
09/11:00am 19.2 17.4 7.2 45 6.1 S 6 13 3 7 1025.1 - 0.0
09/10:45am 18.9 17.7 7.9 48 5.7 SE 4 11 2 6 1025.2 - 0.0
09/10:30am 18.6 16.4 7.8 49 5.5 S 9 15 5 8 1025.2 - 0.0
09/10:15am 18.2 16.4 7.8 50 5.3 SW 7 13 4 7 1025.2 - 0.0
09/10:00am 17.3 15.5 7.8 53 4.8 SW 7 11 4 6 1025.3 - 0.0
09/09:45am 16.7 14.5 7.7 55 4.6 SW 9 13 5 7 1025.3 - 0.0
09/09:30am 16.1 13.5 7.8 58 4.2 SW 11 15 6 8 1025.3 - 0.0
09/09:15am 15.5 12.9 7.8 60 3.9 SW 11 17 6 9 1025.3 - 0.0
09/09:00am 14.9 11.5 7.7 62 3.6 SW 15 19 8 10 1025.4 - 0.0
09/08:45am 14.3 11.3 7.5 63 3.4 SW 13 19 7 10 1025.3 - 0.0
09/08:30am 13.8 10.8 7.5 65 3.1 SW 13 19 7 10 1025.2 - 0.0
09/08:15am 13.2 9.3 7.2 67 2.9 SW 17 24 9 13 1025.1 - 0.0
09/08:00am 12.8 8.5 7.2 69 2.7 SW 19 24 10 13 1025.0 - 0.0
09/07:45am 12.2 8.3 7.0 70 2.5 SW 17 22 9 12 1025.0 - 0.0
09/07:30am 11.8 7.9 6.9 72 2.4 SW 17 22 9 12 1024.7 - 0.0
09/07:15am 11.4 6.5 6.8 73 2.2 SW 22 28 12 15 1024.5 - 0.0
09/07:00am 11.1 6.2 6.7 74 2.1 SW 22 26 12 14 1024.3 - 0.0
09/06:45am 11.1 6.2 6.7 74 2.1 SW 22 24 12 13 1024.1 - 0.0
09/06:30am 11.3 6.9 6.7 73 2.2 SW 19 24 10 13 1024.0 - 0.0
09/06:15am 11.5 7.5 6.7 72 2.3 SW 17 20 9 11 1023.8 - 0.0
09/06:00am 11.7 7.4 6.8 72 2.4 SW 19 22 10 12 1023.6 - 0.0
09/05:45am 12.0 7.7 6.9 71 2.5 SW 19 22 10 12 1023.5 - 0.0
09/05:30am 12.3 8.4 7.1 70 2.5 SW 17 20 9 11 1023.2 - 0.0
09/05:15am 12.5 9.0 7.2 70 2.6 SW 15 19 8 10 1023.1 - 0.0
09/05:00am 12.5 9.8 7.2 70 2.6 SW 11 15 6 8 1023.0 - 0.0
09/04:45am 12.6 9.5 7.2 69 2.6 SSW 13 17 7 9 1022.9 - 0.0
09/04:30am 12.4 9.3 7.2 70 2.5 SW 13 19 7 10 1022.9 - 0.0
09/04:15am 12.3 9.5 7.1 70 2.5 SSW 11 15 6 8 1022.7 - 0.0
09/04:00am 12.4 9.3 7.1 70 2.6 SW 13 17 7 9 1022.6 - 0.0
09/03:45am 12.4 9.3 7.1 70 2.6 SW 13 17 7 9 1022.6 - 0.0
09/03:30am 12.3 9.1 7.0 70 2.6 SW 13 17 7 9 1022.6 - 0.0
09/03:15am 12.2 9.0 6.8 69 2.6 SW 13 19 7 10 1022.6 - 0.0
09/03:00am 12.4 9.2 6.8 68 2.7 SW 13 19 7 10 1022.7 - 0.0
09/02:45am 12.7 9.5 6.8 67 2.9 SW 13 19 7 10 1022.7 - 0.0
09/02:30am 13.0 9.8 6.8 66 3.0 SW 13 19 7 10 1022.6 - 0.0
09/02:15am 13.2 9.3 6.9 65 3.1 SW 17 20 9 11 1022.5 - 0.0
09/02:00am 13.3 9.0 6.9 65 3.1 SW 19 24 10 13 1022.5 - 0.0
09/01:45am 13.4 8.5 6.9 65 3.2 SW 22 28 12 15 1022.5 - 0.0
09/01:30am 13.4 8.8 6.7 64 3.2 SW 20 28 11 15 1022.6 - 0.0
09/01:15am 13.4 8.8 6.7 64 3.2 SW 20 26 11 14 1022.6 - 0.0
09/01:00am 13.5 9.5 6.6 63 3.3 SW 17 22 9 12 1022.6 - 0.0
09/12:45am 13.5 9.1 6.5 62 3.4 SW 19 26 10 14 1022.5 - 0.0
09/12:30am 13.5 9.1 6.5 62 3.4 SW 19 26 10 14 1022.4 - 0.0
09/12:15am 13.5 8.9 6.4 62 3.4 SW 20 28 11 15 1022.3 - 0.0
09/12:00am 13.4 8.4 6.3 62 3.4 SSW 22 30 12 16 1022.3 - 0.0
 
Date/Time
EST
Temp
°C
App
Temp
°C
Dew
Point
°C
Rel
Hum
%
Delta-T
°C
Wind Press
QNH
hPa
Press
MSL
hPa
Rain since
9am
mm
Dir  Spd
km/h
Gust
km/h
Spd
kts
Gust
kts
08/11:45pm 13.3 8.2 6.1 61 3.4 SW 22 32 12 17 1022.3 - 0.0
08/11:30pm 13.6 8.9 6.1 60 3.6 SW 20 28 11 15 1022.2 - 0.0
08/11:15pm 13.7 9.0 6.1 60 3.6 SW 20 30 11 16 1022.2 - 0.0
08/11:00pm 13.8 9.1 6.1 59 3.7 SW 20 28 11 15 1022.2 - 0.0
08/10:45pm 13.8 9.3 6.0 59 3.7 SW 19 28 10 15 1022.2 - 0.0
08/10:30pm 13.6 8.9 6.0 60 3.6 SW 20 28 11 15 1022.3 - 0.0
08/10:15pm 13.7 9.2 5.9 59 3.7 SW 19 26 10 14 1022.3 - 0.0
08/10:00pm 13.9 9.7 5.9 58 3.8 SW 17 24 9 13 1022.2 - 0.0
08/09:45pm 14.0 9.3 5.9 58 3.9 SW 20 28 11 15 1022.1 - 0.0
08/09:30pm 14.0 9.3 5.9 58 3.9 SW 20 28 11 15 1022.1 - 0.0
08/09:15pm 13.9 8.8 5.9 58 3.8 SW 22 30 12 16 1022.0 - 0.0
08/09:00pm 13.7 8.6 5.9 59 3.7 SW 22 33 12 18 1021.9 - 0.0
08/08:45pm 13.7 8.9 5.8 59 3.8 SW 20 28 11 15 1021.6 - 0.0
08/08:30pm 13.8 7.9 5.8 58 3.8 SW 26 35 14 19 1021.4 - 0.0
08/08:15pm 13.9 8.4 5.9 58 3.8 SW 24 37 13 20 1021.3 - 0.0
08/08:00pm 13.8 8.3 5.9 59 3.8 SW 24 33 13 18 1021.3 - 0.0
08/07:45pm 13.9 9.1 5.8 58 3.9 SW 20 30 11 16 1021.1 - 0.0
08/07:30pm 14.0 8.9 5.8 57 3.9 SW 22 32 12 17 1020.9 - 0.0
08/07:15pm 14.1 8.9 5.7 57 4.0 SW 22 28 12 15 1020.7 - 0.0
08/07:00pm 14.4 9.2 5.7 56 4.2 SW 22 33 12 18 1020.5 - 0.0
08/06:45pm 14.7 9.1 5.6 54 4.4 SW 24 33 13 18 1020.3 - 0.0
08/06:30pm 14.9 8.9 5.5 53 4.5 SW 26 39 14 21 1020.0 - 0.0
08/06:15pm 14.9 8.9 5.4 53 4.5 SW 26 41 14 22 1019.7 - 0.0
08/06:00pm 15.1 9.5 5.3 52 4.7 WSW 24 32 13 17 1019.5 - 0.0
08/05:45pm 15.4 9.8 5.2 50 4.9 SW 24 39 13 21 1019.3 - 0.0
08/05:30pm 15.5 9.8 5.1 50 5.0 SW 24 37 13 20 1019.1 - 0.0
08/05:15pm 15.9 10.2 5.0 48 5.2 SW 24 35 13 19 1018.8 - 0.0
08/05:00pm 16.3 10.6 4.8 46 5.5 WSW 24 37 13 20 1018.5 - 0.0
08/04:45pm 16.8 11.1 4.7 44 5.8 WSW 24 37 13 20 1018.1 - 0.0
08/04:30pm 17.4 12.0 4.6 42 6.1 SW 22 33 12 18 1017.8 - 0.0
08/04:15pm 18.0 13.0 4.6 41 6.4 SW 20 37 11 20 1017.5 - 0.0
08/04:00pm 18.3 12.5 4.5 40 6.6 SW 24 35 13 19 1017.2 - 0.0
08/03:45pm 18.5 12.3 4.4 39 6.8 SW 26 37 14 20 1017.0 - 0.0
08/03:30pm 18.8 13.4 4.3 38 7.0 SW 22 37 12 20 1016.9 - 0.0
08/03:15pm 18.8 13.0 4.3 38 7.0 SW 24 37 13 20 1016.8 - 0.0
08/03:00pm 18.7 12.9 4.2 38 6.9 SW 24 39 13 21 1016.5 - 0.0
08/02:45pm 18.9 12.7 4.2 37 7.0 SW 26 39 14 21 1016.4 - 0.0
08/02:30pm 18.8 12.6 4.1 37 7.0 SW 26 43 14 23 1016.4 - 0.0
08/02:15pm 19.0 13.9 4.2 37 7.1 SW 20 37 11 20 1016.3 - 0.0
08/02:00pm 19.0 14.2 4.4 38 7.0 SW 19 33 10 18 1016.2 - 0.0
08/01:45pm 18.8 13.0 4.3 38 7.0 WSW 24 39 13 21 1016.2 - 0.0
08/01:30pm 18.7 12.1 4.1 38 7.0 WSW 28 43 15 23 1016.2 - 0.0
08/01:15pm 18.7 12.5 4.2 38 6.9 WSW 26 39 14 21 1016.3 - 0.0
08/01:00pm 18.6 12.7 4.0 38 7.0 WSW 24 37 13 20 1016.6 - 0.0
08/12:45pm 18.3 12.0 3.7 38 6.9 WSW 26 39 14 21 1016.8 - 0.0
08/12:30pm 18.3 13.2 4.1 39 6.8 SW 20 33 11 18 1016.9 - 0.0
08/12:15pm 17.9 11.7 4.1 40 6.6 WSW 26 39 14 21 1017.0 - 0.0
08/12:00pm 17.6 11.0 4.0 40 6.4 WSW 28 41 15 22 1017.3 - 0.0
08/11:45am 17.3 11.5 4.2 41 6.2 WSW 24 39 13 21 1017.4 - 0.0
08/11:30am 16.8 9.8 4.1 43 6.0 WSW 30 43 16 23 1017.6 - 0.0
08/11:15am 16.7 10.5 4.1 43 5.9 WSW 26 41 14 22 1017.9 - 0.0
08/11:00am 16.4 9.4 4.0 43 5.8 WSW 30 41 16 22 1017.9 - 0.0
08/10:45am 16.0 8.5 3.7 44 5.7 WSW 32 43 17 23 1018.1 - 0.0
08/10:30am 15.9 9.7 4.1 45 5.5 WSW 26 41 14 22 1018.2 - 0.0
08/10:15am 15.7 9.5 4.4 47 5.3 WSW 26 41 14 22 1018.3 - 0.0
08/10:00am 15.2 8.6 4.2 47 5.1 WSW 28 46 15 25 1018.5 - 0.0
08/09:45am 14.8 9.4 4.4 49 4.9 WSW 22 39 12 21 1018.4 - 0.0
08/09:30am 14.2 9.1 4.1 50 4.7 WSW 20 33 11 18 1018.5 - 0.0
08/09:15am 13.7 8.8 4.2 52 4.4 WSW 19 28 10 15 1018.5 - 0.0
08/09:00am 13.2 8.3 3.9 53 4.2 WSW 19 30 10 16 1018.5 - 0.0
08/08:45am 12.8 8.6 3.9 54 4.0 WSW 15 26 8 14 1018.7 - 0.0
08/08:30am 12.1 7.5 3.9 57 3.7 W 17 22 9 12 1018.6 - 0.0
08/08:15am 11.6 8.1 3.7 58 3.5 W 11 22 6 12 1018.4 - 0.0
08/08:00am 10.8 6.5 3.4 60 3.3 W 15 22 8 12 1018.2 - 0.0
08/07:45am 10.0 5.7 3.1 62 3.0 W 15 20 8 11 1018.2 - 0.0
08/07:30am 9.0 5.3 2.6 64 2.7 WNW 11 20 6 11 1018.2 - 0.0
08/07:15am 8.9 5.2 2.5 64 2.7 W 11 19 6 10 1018.1 - 0.0
08/07:00am 8.6 4.2 2.5 65 2.6 W 15 26 8 14 1017.9 - 0.0
08/06:45am 8.2 3.7 2.4 67 2.4 W 15 26 8 14 1018.0 - 0.0
08/06:30am 8.2 3.7 2.1 65 2.5 WSW 15 24 8 13 1018.0 - 0.0
08/06:15am 8.1 3.6 2.0 65 2.5 W 15 22 8 12 1018.1 - 0.0
08/06:00am 7.5 3.3 1.9 67 2.3 WSW 13 22 7 12 1018.1 - 0.0
08/05:45am 7.0 3.5 1.4 67 2.3 W 9 13 5 7 1018.1 - 0.0
08/05:30am 7.2 3.3 1.3 66 2.4 W 11 19 6 10 1017.9 - 0.0
08/05:15am 7.7 3.4 1.3 64 2.6 WSW 13 19 7 10 1017.9 - 0.0
08/05:00am 8.1 3.5 1.5 63 2.7 W 15 20 8 11 1018.0 - 0.0
08/04:45am 7.9 2.4 1.6 64 2.6 WSW 20 24 11 13 1018.0 - 0.0
08/04:30am 8.2 2.3 1.4 62 2.8 WSW 22 28 12 15 1018.0 - 0.0
08/04:15am 8.2 2.6 1.2 61 2.9 WSW 20 28 11 15 1017.9 - 0.0
08/04:00am 8.2 2.8 1.1 61 2.9 WSW 19 26 10 14 1017.8 - 0.0
08/03:45am 8.1 2.5 1.1 61 2.9 WSW 20 30 11 16 1018.0 - 0.0
08/03:30am 7.9 1.1 0.8 61 2.9 WSW 26 33 14 18 1018.1 - 0.0
08/03:15am 7.9 0.3 0.7 60 2.9 WSW 30 33 16 18 1018.3 - 0.0
08/03:00am 7.9 0.3 0.8 61 2.9 WSW 30 33 16 18 1018.5 - 0.0
08/02:45am 8.0 1.2 0.6 59 3.0 WSW 26 32 14 17 1018.7 - 0.0
08/02:30am 8.1 1.6 0.3 58 3.1 WSW 24 28 13 15 1018.7 - 0.0
08/02:15am 8.2 0.9 0.3 57 3.2 WSW 28 30 15 16 1018.7 - 0.0
08/02:00am 8.1 1.2 0.2 57 3.2 WSW 26 33 14 18 1018.8 - 0.0
08/01:45am 8.2 1.3 0.1 56 3.2 WSW 26 33 14 18 1019.0 - 0.0
08/01:30am 8.2 2.0 0.0 56 3.3 WSW 22 30 12 16 1019.1 - 0.0
08/01:15am 8.3 2.5 -0.2 55 3.4 WSW 20 32 11 17 1019.2 - 0.0
08/01:00am 8.4 2.6 -0.4 54 3.5 WSW 20 28 11 15 1019.4 - 0.0
08/12:45am 8.4 3.1 -0.6 53 3.5 WSW 17 24 9 13 1019.6 - 0.0
08/12:30am 8.5 2.8 -0.5 53 3.5 WSW 19 28 10 15 1019.6 - 0.0
08/12:15am 8.7 2.5 -0.5 52 3.6 WSW 22 28 12 15 1019.6 - 0.0
08/12:00am 8.7 3.0 -0.8 51 3.7 WSW 19 28 10 15 1019.6 - 0.0
 
Date/Time
EST
Temp
°C
App
Temp
°C
Dew
Point
°C
Rel
Hum
%
Delta-T
°C
Wind Press
QNH
hPa
Press
MSL
hPa
Rain since
9am
mm
Dir  Spd
km/h
Gust
km/h
Spd
kts
Gust
kts
07/11:45pm 8.7 2.8 -0.7 51 3.7 SW 20 30 11 16 1019.5 - 0.0
07/11:30pm 8.6 2.3 -0.7 52 3.6 SW 22 32 12 17 1019.5 - 0.0
07/11:15pm 8.6 2.7 -0.7 52 3.6 SW 20 28 11 15 1019.3 - 0.0
07/11:00pm 8.9 3.0 -0.8 50 3.8 SW 20 30 11 16 1019.4 - 0.0
07/10:45pm 9.1 2.0 -0.9 49 3.9 SW 26 32 14 17 1019.4 - 0.0
07/10:30pm 9.3 1.9 -0.9 49 4.0 SW 28 39 15 21 1019.3 - 0.0
07/10:15pm 9.5 2.1 -0.9 48 4.1 WSW 28 39 15 21 1019.3 - 0.0
07/10:00pm 9.5 2.4 -1.1 47 4.2 WSW 26 37 14 20 1019.5 - 0.0
07/09:45pm 9.8 3.1 -1.0 47 4.3 WSW 24 37 13 20 1019.6 - 0.0
07/09:30pm 9.8 3.5 -0.9 47 4.2 WSW 22 33 12 18 1019.5 - 0.0
07/09:15pm 10.0 4.1 -1.0 46 4.4 W 20 33 11 18 1019.3 - 0.0
07/09:00pm 10.2 4.2 -1.2 45 4.5 WSW 20 30 11 16 1019.2 - 0.0
07/08:45pm 10.2 3.1 -1.5 44 4.6 WSW 26 41 14 22 1019.1 - 0.0
07/08:30pm 10.2 2.7 -1.7 43 4.6 SW 28 44 15 24 1018.9 - 0.0
07/08:15pm 10.0 2.8 -1.7 44 4.6 SW 26 43 14 23 1018.8 - 0.0
07/08:00pm 9.9 3.1 -1.8 44 4.5 SW 24 35 13 19 1018.7 - 0.0
07/07:45pm 10.3 3.9 -1.9 42 4.7 WSW 22 33 12 18 1018.6 - 0.0
07/07:30pm 10.5 3.3 -1.9 42 4.8 WSW 26 33 14 18 1018.4 - 0.0
07/07:15pm 10.7 3.9 -2.0 41 4.9 WSW 24 33 13 18 1018.4 - 0.0
07/07:00pm 11.0 3.4 -2.1 40 5.1 WSW 28 37 15 20 1018.2 - 0.0
07/06:45pm 11.1 3.5 -2.0 40 5.1 WSW 28 41 15 22 1017.9 - 0.0
07/06:30pm 11.2 4.8 -2.0 39 5.2 WSW 22 33 12 18 1017.8 - 0.0
07/06:15pm 11.4 4.2 -2.1 39 5.3 WSW 26 37 14 20 1017.5 - 0.0
07/06:00pm 11.5 4.3 -2.2 38 5.4 WSW 26 46 14 25 1017.3 - 0.0
07/05:45pm 11.7 5.3 -1.7 39 5.3 WSW 22 39 12 21 1016.9 - 0.0
07/05:30pm 12.0 6.0 -1.7 38 5.4 WSW 20 32 11 17 1016.6 - 0.0
07/05:15pm 12.2 5.0 -2.0 37 5.6 WSW 26 41 14 22 1016.5 - 0.0
07/05:00pm 12.6 4.2 -2.2 35 5.9 WSW 32 50 17 27 1016.4 - 0.0
07/04:45pm 12.8 4.8 -2.4 34 6.0 WSW 30 50 16 27 1016.3 - 0.0
07/04:30pm 13.1 4.7 -2.6 33 6.2 WSW 32 46 17 25 1016.2 - 0.0
07/04:15pm 13.6 5.9 -2.7 32 6.4 WSW 28 48 15 26 1016.0 - 0.0
07/04:00pm 13.8 5.4 -2.8 31 6.6 WSW 32 50 17 27 1015.9 - 0.0
07/03:45pm 14.1 6.0 -3.0 30 6.8 WSW 30 50 16 27 1015.6 - 0.0
07/03:30pm 14.3 5.6 -3.4 29 6.9 WSW 33 50 18 27 1015.4 - 0.0
07/03:15pm 14.5 6.4 -3.1 29 7.0 SW 30 50 16 27 1015.5 - 0.0
07/03:00pm 14.6 6.4 -3.6 28 7.1 SW 30 50 16 27 1015.2 - 0.0
07/02:45pm 14.9 5.8 -3.8 27 7.3 WSW 35 52 19 28 1015.1 - 0.0
07/02:30pm 14.9 7.5 -3.4 28 7.2 SSW 26 41 14 22 1015.0 - 0.0
07/02:15pm 14.8 6.6 -3.9 27 7.3 SW 30 46 16 25 1014.9 - 0.0
07/02:00pm 15.4 7.3 -3.5 27 7.5 SW 30 46 16 25 1014.7 - 0.0
07/01:45pm 15.3 7.1 -4.0 26 7.6 SW 30 54 16 29 1014.5 - 0.0
07/01:30pm 15.3 5.7 -4.3 25 7.6 WSW 37 56 20 30 1014.4 - 0.0
07/01:15pm 15.5 6.7 -4.3 25 7.7 WSW 33 57 18 31 1014.2 - 0.0
07/01:00pm 15.5 7.2 -4.9 24 7.8 WSW 30 41 16 22 1014.2 - 0.0
07/12:45pm 15.6 7.3 -4.9 24 7.9 WSW 30 46 16 25 1014.4 - 0.0
07/12:30pm 15.4 6.5 -5.6 23 7.9 SW 33 52 18 28 1014.4 - 0.0
07/12:15pm 15.4 6.4 -6.3 22 8.1 WSW 33 50 18 27 1014.6 - 0.0
07/12:00pm 15.4 6.0 -6.2 22 8.1 SW 35 50 19 27 1014.7 - 0.0
07/11:45am 15.6 6.7 -5.0 24 7.9 WSW 33 52 18 28 1014.9 - 0.0
07/11:30am 15.5 7.9 -2.0 30 7.2 WSW 28 44 15 24 1014.9 - 0.0
07/11:15am 14.7 6.9 -0.7 34 6.4 WSW 30 44 16 24 1014.9 - 0.0
07/11:00am 14.8 7.5 2.4 43 5.5 WSW 30 50 16 27 1014.9 - 0.0
07/10:45am 14.1 6.8 2.7 46 5.1 WSW 30 44 16 24 1014.8 - 0.0
07/10:30am 13.9 6.3 4.0 51 4.5 SW 33 54 18 29 1014.9 - 0.0
07/10:15am 15.1 6.9 4.8 50 4.9 SW 37 57 20 31 1014.6 - 0.0
07/10:00am 16.3 10.1 6.0 50 5.0 WSW 28 44 15 24 1014.2 - 0.0
07/09:45am 16.1 9.9 6.0 51 4.9 WSW 28 46 15 25 1014.1 - 0.0
07/09:30am 15.7 12.8 6.5 54 4.5 W 11 20 6 11 1013.9 - 0.0
07/09:15am 14.9 12.3 6.0 55 4.3 WNW 9 17 5 9 1014.1 - 0.0
07/09:00am 14.8 12.6 6.0 55 4.2 WNW 7 13 4 7 1014.1 - 0.0
07/08:45am 14.5 11.8 5.6 55 4.2 NW 9 15 5 8 1014.1 - 0.0
07/08:30am 14.2 11.5 5.5 56 4.1 NW 9 17 5 9 1014.1 - 0.0
07/08:15am 13.8 11.5 5.9 59 3.8 WNW 7 17 4 9 1014.0 - 0.0
07/08:00am 12.9 10.2 5.8 62 3.4 WNW 9 17 5 9 1014.0 - 0.0
07/07:45am 12.1 8.9 5.2 62 3.2 WNW 11 17 6 9 1013.9 - 0.0
07/07:30am 11.8 8.9 4.8 62 3.2 NW 9 15 5 8 1013.8 - 0.0
07/07:15am 11.3 8.4 4.6 63 3.1 NNW 9 15 5 8 1013.7 - 0.0
07/07:00am 11.2 7.5 4.5 63 3.0 NW 13 15 7 8 1013.6 - 0.0
07/06:45am 11.5 7.1 4.6 62 3.1 W 17 24 9 13 1013.6 - 0.0
07/06:30am 11.5 6.7 4.6 62 3.1 W 19 24 10 13 1013.5 - 0.0
07/06:15am 11.1 6.7 4.6 64 3.0 W 17 24 9 13 1013.4 - 0.0
07/06:00am 11.2 7.5 4.6 64 3.0 W 13 19 7 10 1013.4 - 0.0
07/05:45am 11.3 7.2 4.6 63 3.1 W 15 20 8 11 1013.5 - 0.0
07/05:30am 11.2 7.1 4.6 64 3.0 WSW 15 22 8 12 1013.6 - 0.0
07/05:15am 11.6 6.8 4.7 62 3.2 WSW 19 28 10 15 1013.6 - 0.0
07/05:00am 11.7 6.9 4.9 63 3.1 WSW 19 24 10 13 1013.6 - 0.0
07/04:45am 11.9 7.5 5.0 62 3.2 WSW 17 26 9 14 1013.5 - 0.0
07/04:30am 12.3 8.0 5.3 62 3.3 W 17 30 9 16 1013.3 - 0.0
07/04:15am 12.6 6.3 5.6 62 3.3 WSW 28 39 15 21 1013.1 - 0.0
07/04:00am 12.1 7.0 6.0 66 2.9 WSW 22 33 12 18 1013.1 - 0.0
07/03:45am 12.0 7.5 6.3 68 2.7 WSW 19 30 10 16 1013.3 - 0.0
07/03:30am 12.2 7.6 6.6 68 2.7 WSW 20 30 11 16 1013.4 - 0.0
07/03:15am 12.5 6.8 6.7 68 2.8 WSW 26 33 14 18 1013.6 - 0.0
07/03:00am 12.2 6.5 6.9 70 2.6 WSW 26 32 14 17 1013.8 - 0.0
07/02:45am 12.2 7.7 7.0 70 2.5 WSW 20 30 11 16 1013.8 - 0.0
07/02:30am 12.5 8.1 7.4 71 2.5 WSW 20 30 11 16 1013.9 - 0.0
07/02:15am 12.5 7.4 7.6 72 2.4 WSW 24 33 13 18 1014.1 - 0.0
07/02:00am 12.0 6.9 7.8 75 2.1 WSW 24 33 13 18 1014.2 - 0.0
07/01:45am 12.1 8.4 8.0 76 2.0 SW 17 20 9 11 1014.5 - 0.0
07/01:30am 12.4 8.4 8.3 76 2.0 SW 19 22 10 12 1014.6 - 0.0
07/01:15am 12.7 8.2 8.6 76 2.1 SW 22 24 12 13 1014.7 - 0.0
07/01:00am 13.1 9.3 8.9 75 2.1 SW 19 22 10 12 1014.8 - 0.0
07/12:45am 13.4 9.1 9.2 76 2.1 SW 22 26 12 14 1014.8 - 0.0
07/12:30am 13.5 9.3 9.9 79 1.9 SW 22 28 12 15 1014.9 - 0.0
07/12:15am 13.6 10.2 11.1 85 1.3 SW 20 26 11 14 1015.0 - 0.0
07/12:00am 13.0 10.4 10.7 86 1.2 SW 15 22 8 12 1015.1 - 0.0
 
Date/Time
EST
Temp
°C
App
Temp
°C
Dew
Point
°C
Rel
Hum
%
Delta-T
°C
Wind Press
QNH
hPa
Press
MSL
hPa
Rain since
9am
mm
Dir  Spd
km/h
Gust
km/h
Spd
kts
Gust
kts
06/11:45pm 14.4 13.2 11.7 84 1.5 W 9 13 5 7 1015.0 - 0.0
06/11:30pm 15.2 13.9 12.4 83 1.5 W 11 17 6 9 1015.1 - 0.0
06/11:15pm 15.4 13.4 12.6 83 1.5 WNW 15 17 8 9 1015.2 - 0.0
06/11:00pm 15.6 14.0 12.7 83 1.6 WNW 13 17 7 9 1015.4 - 0.0
06/10:45pm 15.7 13.8 12.9 83 1.6 WNW 15 19 8 10 1015.6 - 0.0
06/10:30pm 15.7 13.4 12.9 83 1.6 WNW 17 19 9 10 1015.9 - 0.0
06/10:15pm 15.9 13.7 13.2 84 1.5 WNW 17 20 9 11 1016.1 - 0.0
06/10:00pm 15.8 14.5 13.7 87 1.2 WNW 13 17 7 9 1016.3 - 0.0
06/09:45pm 14.9 13.5 13.4 91 0.8 WNW 13 17 7 9 1016.4 - 0.0
06/09:30pm 14.2 13.0 12.8 91 0.8 WNW 11 13 6 7 1016.6 - 0.0
06/09:15pm 13.3 12.1 11.7 90 0.9 NW 9 11 5 6 1016.6 - 0.0
06/09:00pm 13.5 12.7 11.8 89 0.9 NNW 7 9 4 5 1016.6 - 0.0
06/08:45pm 13.7 13.0 12.0 89 0.9 N 7 9 4 5 1016.6 - 0.0
06/08:30pm 13.8 13.0 11.8 88 1.1 N 7 9 4 5 1016.6 - 0.0
06/08:15pm 14.1 13.4 12.1 88 1.1 N 7 9 4 5 1016.7 - 0.0
06/08:00pm 14.4 13.9 12.2 87 1.2 N 6 9 3 5 1016.8 - 0.0
06/07:45pm 14.7 14.3 12.3 85 1.3 NNE 6 7 3 4 1016.8 - 0.0
06/07:30pm 15.1 14.6 12.6 85 1.4 NE 7 9 4 5 1016.8 - 0.0
06/07:15pm 15.1 14.2 12.5 84 1.4 NE 9 11 5 6 1016.7 - 0.0
06/07:00pm 15.3 14.4 12.5 83 1.5 NE 9 11 5 6 1016.8 - 0.0
06/06:45pm 15.6 14.7 12.5 82 1.7 ENE 9 11 5 6 1016.8 - 0.0
06/06:30pm 15.8 14.9 12.6 81 1.8 ENE 9 11 5 6 1016.7 - 0.0

Other formats

Comma delimited format used in spreadsheet applications
http://www.bom.gov.au/fwo/IDN60801/IDN60801.95757.axf

JavaScript Object Notation format (JSON) in row-major order
http://www.bom.gov.au/fwo/IDN60801/IDN60801.95757.json

Data quality

Most of these data are generated automatically and are frequently updated. Quality checks on data are not normally performed. It is possible for incorrect values to appear. Refer to information at About Latest Weather Observations and please check the disclaimer before using these data.